createdAt,value
2022-08-14T00:01:54.612Z,7.30
2022-08-14T00:04:36.097Z,9.27
2022-08-14T00:07:11.304Z,8.53
2022-08-14T00:09:55.171Z,7.80
2022-08-14T00:12:33.209Z,9.17
2022-08-14T00:15:02.896Z,7.80
2022-08-14T00:17:29.935Z,6.73
2022-08-14T00:19:58.312Z,7.90
2022-08-14T00:22:56.873Z,7.90
2022-08-14T00:25:13.638Z,7.90
2022-08-14T00:27:42.465Z,7.23
2022-08-14T00:30:14.273Z,6.87
2022-08-14T00:32:55.701Z,7.13
2022-08-14T00:35:36.828Z,6.63
2022-08-14T00:38:10.349Z,10.30
2022-08-14T00:40:37.432Z,6.87
2022-08-14T00:43:04.794Z,6.63
2022-08-14T00:45:31.777Z,7.93
2022-08-14T00:48:00.170Z,7.43
2022-08-14T00:50:31.186Z,7.27
2022-08-14T00:53:02.492Z,7.60
2022-08-14T00:55:30.920Z,7.90
2022-08-14T00:58:18.396Z,8.47
2022-08-14T01:00:50.841Z,8.80
2022-08-14T01:03:20.275Z,10.90
2022-08-14T01:05:51.744Z,8.00
2022-08-14T01:08:58.210Z,7.20
2022-08-14T01:11:09.755Z,7.60
2022-08-14T01:13:42.329Z,8.30
2022-08-14T01:16:17.306Z,8.47
2022-08-14T01:19:08.064Z,7.50
2022-08-14T01:21:47.346Z,6.80
2022-08-14T01:24:24.725Z,9.17
2022-08-14T01:27:00.148Z,7.10
2022-08-14T01:29:58.271Z,8.30
2022-08-14T01:32:23.135Z,7.70
2022-08-14T01:35:20.850Z,6.90
2022-08-14T01:37:54.755Z,8.03
2022-08-14T01:40:33.271Z,7.77
2022-08-14T01:43:18.917Z,7.80
2022-08-14T01:45:57.633Z,7.30
2022-08-14T01:48:37.009Z,7.03
2022-08-14T01:51:19.462Z,7.03
2022-08-14T01:54:00.809Z,7.53
2022-08-14T01:56:40.902Z,7.07
2022-08-14T01:59:18.591Z,7.10
2022-08-14T02:01:58.155Z,7.40
2022-08-14T02:04:54.969Z,7.00
2022-08-14T02:07:34.359Z,7.53
2022-08-14T02:10:06.775Z,7.00
2022-08-14T02:12:33.967Z,7.90
2022-08-14T02:15:01.878Z,7.67
2022-08-14T02:17:30.639Z,8.80
2022-08-14T02:19:57.843Z,8.17
2022-08-14T02:22:32.851Z,7.67
2022-08-14T02:25:12.937Z,7.73
2022-08-14T02:28:23.241Z,8.73
2022-08-14T02:30:33.845Z,9.70
2022-08-14T02:33:01.316Z,8.70
2022-08-14T02:35:32.699Z,8.40
2022-08-14T02:38:00.027Z,8.07
2022-08-14T02:40:32.181Z,9.40
2022-08-14T02:43:03.373Z,7.17
2022-08-14T02:45:37.879Z,8.17
2022-08-14T02:49:03.121Z,8.07
2022-08-14T02:51:02.582Z,7.23
2022-08-14T02:53:31.243Z,8.23
2022-08-14T02:56:02.481Z,7.10
2022-08-14T02:58:31.513Z,8.43
2022-08-14T03:01:01.359Z,8.30
2022-08-14T03:03:30.093Z,7.70
2022-08-14T03:06:00.285Z,7.80
2022-08-14T03:08:31.698Z,7.57
2022-08-14T03:11:00.269Z,7.00
2022-08-14T03:13:29.631Z,6.50
2022-08-14T03:15:58.109Z,8.93
2022-08-14T03:18:32.058Z,8.40
2022-08-14T03:21:07.729Z,7.83
2022-08-14T03:23:36.620Z,7.37
2022-08-14T03:26:07.890Z,7.20
2022-08-14T03:28:36.815Z,8.60
2022-08-14T03:31:08.352Z,7.67
2022-08-14T03:33:40.901Z,9.10
2022-08-14T03:37:38.964Z,8.27
2022-08-14T03:39:15.410Z,9.03
2022-08-14T03:41:47.802Z,8.50
2022-08-14T03:45:26.801Z,8.50
2022-08-14T03:47:03.158Z,8.53
2022-08-14T03:49:30.497Z,8.43
2022-08-14T03:52:01.175Z,9.90
2022-08-14T03:54:28.878Z,9.37
2022-08-14T03:57:00.642Z,8.40
2022-08-14T03:59:30.823Z,9.10
2022-08-14T04:02:01.668Z,8.40
2022-08-14T04:04:33.437Z,10.40
2022-08-14T04:07:00.819Z,9.00
2022-08-14T04:09:29.353Z,8.93
2022-08-14T04:11:58.215Z,8.73
2022-08-14T04:14:26.542Z,8.60
2022-08-14T04:16:53.321Z,8.80
2022-08-14T04:19:23.808Z,10.17
2022-08-14T04:22:03.266Z,9.23
2022-08-14T04:24:38.596Z,9.07
2022-08-14T04:27:11.495Z,8.97
2022-08-14T04:29:45.060Z,10.03
2022-08-14T04:33:02.684Z,9.13
2022-08-14T04:35:00.541Z,9.40
2022-08-14T04:37:46.607Z,9.53
2022-08-14T04:40:40.573Z,9.87
2022-08-14T04:43:43.905Z,8.90
2022-08-14T04:46:56.886Z,9.10
2022-08-14T04:49:07.846Z,10.03
2022-08-14T04:51:37.433Z,12.30
2022-08-14T04:54:13.905Z,9.37
2022-08-14T04:56:43.504Z,9.23
2022-08-14T04:59:12.422Z,9.30
2022-08-14T05:01:48.828Z,8.70
2022-08-14T05:04:20.876Z,10.23
2022-08-14T05:06:53.533Z,9.53
2022-08-14T05:09:22.443Z,10.40
2022-08-14T05:11:50.411Z,9.20
2022-08-14T05:14:46.220Z,9.30
2022-08-14T05:17:06.885Z,8.77
2022-08-14T05:19:33.878Z,9.37
2022-08-14T05:22:16.516Z,8.73
2022-08-14T05:24:51.738Z,8.90
2022-08-14T05:27:22.912Z,9.20
2022-08-14T05:29:56.652Z,8.37
2022-08-14T05:32:27.238Z,9.40
2022-08-14T05:34:58.157Z,8.17
2022-08-14T05:37:27.197Z,14.83
2022-08-14T05:39:55.069Z,7.50
2022-08-14T05:42:27.275Z,8.40
2022-08-14T05:44:59.136Z,7.90
2022-08-14T05:47:28.564Z,7.70
2022-08-14T05:50:01.830Z,8.03
2022-08-14T05:52:39.345Z,6.83
2022-08-14T05:55:11.365Z,7.73
2022-08-14T05:57:51.681Z,8.77
2022-08-14T06:00:28.325Z,8.80
2022-08-14T06:02:57.015Z,7.17
2022-08-14T06:05:24.258Z,7.20
2022-08-14T06:07:57.311Z,7.67
2022-08-14T06:10:24.683Z,8.00
2022-08-14T06:12:56.120Z,7.60
2022-08-14T06:15:27.630Z,6.90
2022-08-14T06:18:25.257Z,6.97
2022-08-14T06:20:52.484Z,7.70
2022-08-14T06:23:23.975Z,6.43
2022-08-14T06:25:52.761Z,6.80
2022-08-14T06:28:27.952Z,6.93
2022-08-14T06:30:55.965Z,5.83
2022-08-14T06:33:22.919Z,7.20
2022-08-14T06:35:57.006Z,5.90
2022-08-14T06:38:24.770Z,6.03
2022-08-14T06:40:53.270Z,7.80
2022-08-14T06:43:21.033Z,5.77
2022-08-14T06:45:53.650Z,5.50
2022-08-14T06:48:24.485Z,6.03
2022-08-14T06:50:55.526Z,6.23
2022-08-14T06:53:27.807Z,5.20
2022-08-14T06:56:00.651Z,6.50
2022-08-14T06:58:31.294Z,8.23
2022-08-14T07:01:24.985Z,5.43
2022-08-14T07:04:23.212Z,7.90
2022-08-14T07:06:55.554Z,5.23
2022-08-14T07:09:27.676Z,5.00
2022-08-14T07:11:55.450Z,5.87
2022-08-14T07:14:23.228Z,5.10
2022-08-14T07:16:50.053Z,5.23
2022-08-14T07:19:20.878Z,6.10
2022-08-14T07:21:48.343Z,5.80
2022-08-14T07:24:26.189Z,5.20
2022-08-14T07:26:58.003Z,5.43
2022-08-14T07:29:28.688Z,5.43
2022-08-14T07:31:56.065Z,4.83
2022-08-14T07:34:26.504Z,4.80
2022-08-14T07:37:04.546Z,5.00
2022-08-14T07:39:31.341Z,3.77
2022-08-14T07:42:01.893Z,4.23
2022-08-14T07:44:35.485Z,6.17
2022-08-14T07:47:15.817Z,3.67
2022-08-14T07:49:55.423Z,4.70
2022-08-14T07:52:30.802Z,4.23
2022-08-14T07:55:00.248Z,5.03
2022-08-14T07:57:28.231Z,4.90
2022-08-14T07:59:55.023Z,4.40
2022-08-14T08:02:22.337Z,4.23
2022-08-14T08:04:54.406Z,3.60
2022-08-14T08:07:29.659Z,3.80
2022-08-14T08:09:59.733Z,5.40
2022-08-14T08:12:30.802Z,3.77
2022-08-14T08:15:03.196Z,4.63
2022-08-14T08:17:38.762Z,3.40
2022-08-14T08:20:19.819Z,3.67
2022-08-14T08:22:55.503Z,3.73
2022-08-14T08:25:24.728Z,3.40
2022-08-14T08:28:08.491Z,3.67
2022-08-14T08:30:38.135Z,4.20
2022-08-14T08:33:17.275Z,3.30
2022-08-14T08:35:46.924Z,3.67
2022-08-14T08:39:17.337Z,3.93
2022-08-14T08:41:10.940Z,3.27
2022-08-14T08:43:38.988Z,3.30
2022-08-14T08:46:21.118Z,3.90
2022-08-14T08:51:33.231Z,3.70
2022-08-14T08:54:09.851Z,3.70
2022-08-14T08:56:43.768Z,3.90
2022-08-14T08:59:22.707Z,3.37
2022-08-14T09:02:10.275Z,3.30
2022-08-14T09:04:45.425Z,3.73
2022-08-14T09:07:25.672Z,4.10
2022-08-14T09:09:58.596Z,3.70
2022-08-14T09:12:32.245Z,4.00
2022-08-14T09:15:11.334Z,5.97
2022-08-14T09:17:38.971Z,3.40
2022-08-14T09:20:11.744Z,3.80
2022-08-14T09:22:47.839Z,5.30
2022-08-14T09:25:16.920Z,5.40
2022-08-14T09:27:44.030Z,3.87
2022-08-14T09:30:31.542Z,3.77
2022-08-14T09:33:12.300Z,3.90
2022-08-14T09:36:02.102Z,7.47
2022-08-14T09:38:47.397Z,4.07
2022-08-14T09:42:21.772Z,3.60
2022-08-14T09:44:32.946Z,4.40
2022-08-14T09:46:59.914Z,3.93
2022-08-14T09:49:40.664Z,4.03
2022-08-14T09:52:32.863Z,4.23
2022-08-14T09:55:01.470Z,4.37
2022-08-14T09:57:31.301Z,4.43
2022-08-14T09:59:58.993Z,4.27
2022-08-14T10:02:32.205Z,4.10
2022-08-14T10:05:02.739Z,12.13
2022-08-14T10:07:36.246Z,4.50
2022-08-14T10:10:23.345Z,3.70
2022-08-14T10:12:54.664Z,3.80
2022-08-14T10:15:27.894Z,4.37
2022-08-14T10:18:17.266Z,4.10
2022-08-14T10:20:55.282Z,4.70
2022-08-14T10:23:26.088Z,3.87
2022-08-14T10:26:06.070Z,4.93
2022-08-14T10:29:17.580Z,4.03
2022-08-14T10:31:40.283Z,3.90
2022-08-14T10:34:18.506Z,3.40
2022-08-14T10:36:50.187Z,5.40
2022-08-14T10:39:29.945Z,4.33
2022-08-14T10:42:16.543Z,8.03
2022-08-14T10:44:52.573Z,3.83
2022-08-14T10:47:39.281Z,4.00
2022-08-14T10:50:07.836Z,5.47
2022-08-14T10:52:42.456Z,7.00
2022-08-14T10:55:16.323Z,3.47
2022-08-14T10:57:51.212Z,4.53
2022-08-14T11:00:35.426Z,3.67
2022-08-14T11:03:11.035Z,4.00
2022-08-14T11:05:44.462Z,3.80
2022-08-14T11:08:15.494Z,3.87
2022-08-14T11:10:48.800Z,3.93
2022-08-14T11:13:23.922Z,4.00
2022-08-14T11:15:52.630Z,3.77
2022-08-14T11:18:32.335Z,3.97
2022-08-14T11:21:07.041Z,4.70
2022-08-14T11:23:41.179Z,3.93
2022-08-14T11:26:13.363Z,4.00
2022-08-14T11:28:48.144Z,4.57
2022-08-14T11:31:19.834Z,6.10
2022-08-14T11:33:53.950Z,4.30
2022-08-14T11:37:02.797Z,3.67
2022-08-14T11:39:35.120Z,4.03
2022-08-14T11:42:57.348Z,4.00
2022-08-14T11:44:59.760Z,3.90
2022-08-14T11:47:35.219Z,4.03
2022-08-14T11:50:25.047Z,4.60
2022-08-14T11:53:04.421Z,4.43
2022-08-14T11:55:39.698Z,3.97
2022-08-14T11:58:12.101Z,4.40
2022-08-14T12:00:53.721Z,4.13
2022-08-14T12:03:37.622Z,3.80
2022-08-14T12:06:28.842Z,5.83
2022-08-14T12:08:56.970Z,4.43
2022-08-14T12:11:43.073Z,4.20
2022-08-14T12:14:29.260Z,4.30
2022-08-14T12:17:05.222Z,3.20
2022-08-14T12:19:42.763Z,3.37
2022-08-14T12:22:13.455Z,2.90
2022-08-14T12:24:56.359Z,3.93
2022-08-14T12:27:34.266Z,3.40
2022-08-14T12:30:05.964Z,4.23
2022-08-14T12:32:43.421Z,9.80
2022-08-14T12:35:11.454Z,4.33
2022-08-14T12:37:40.100Z,3.70
2022-08-14T12:40:14.136Z,3.53
2022-08-14T12:42:52.681Z,4.47
2022-08-14T12:45:31.397Z,3.67
2022-08-14T12:48:20.748Z,3.93
2022-08-14T12:50:52.311Z,3.37
2022-08-14T12:53:20.729Z,4.00
2022-08-14T12:56:18.825Z,4.20
2022-08-14T12:58:58.456Z,3.50
2022-08-14T13:01:56.569Z,3.90
2022-08-14T13:04:19.059Z,3.80
2022-08-14T13:06:50.746Z,3.20
2022-08-14T13:09:19.872Z,3.40
2022-08-14T13:11:58.857Z,3.50
2022-08-14T13:14:41.768Z,3.37
2022-08-14T13:17:10.932Z,3.67
2022-08-14T13:19:40.590Z,3.50
2022-08-14T13:22:10.309Z,3.93
2022-08-14T13:24:55.302Z,3.73
2022-08-14T13:27:25.552Z,4.50
2022-08-14T13:29:57.479Z,3.27
2022-08-14T13:32:26.246Z,3.77
2022-08-14T13:34:53.498Z,3.47
2022-08-14T13:37:20.750Z,3.20
2022-08-14T13:39:57.014Z,4.13
2022-08-14T13:42:30.280Z,4.23
2022-08-14T13:44:59.659Z,3.97
2022-08-14T13:47:32.454Z,3.30
2022-08-14T13:50:02.661Z,3.47
2022-08-14T13:52:51.930Z,3.50
2022-08-14T13:55:28.904Z,6.33
2022-08-14T13:58:03.628Z,3.73
2022-08-14T14:00:35.721Z,3.27
2022-08-14T14:03:20.249Z,3.43
2022-08-14T14:05:54.338Z,3.83
2022-08-14T14:08:46.237Z,3.73
2022-08-14T14:11:11.369Z,3.40
2022-08-14T14:13:42.100Z,4.20
2022-08-14T14:16:15.457Z,3.47
2022-08-14T14:18:52.519Z,3.90
2022-08-14T14:21:21.494Z,3.27
2022-08-14T14:23:49.234Z,3.20
2022-08-14T14:26:23.218Z,3.50
2022-08-14T14:28:56.411Z,3.17
2022-08-14T14:31:29.728Z,3.97
2022-08-14T14:33:59.533Z,3.23
2022-08-14T14:36:29.419Z,4.20
2022-08-14T14:39:07.075Z,4.60
2022-08-14T14:41:43.849Z,3.33
2022-08-14T14:44:15.481Z,3.53
2022-08-14T14:46:50.641Z,3.57
2022-08-14T14:49:21.737Z,3.10
2022-08-14T14:51:51.483Z,3.33
2022-08-14T14:54:30.868Z,3.50
2022-08-14T14:57:05.034Z,3.10
2022-08-14T14:59:37.556Z,8.73
2022-08-14T15:02:09.370Z,5.10
2022-08-14T15:04:38.360Z,4.10
2022-08-14T15:07:06.816Z,3.13
2022-08-14T15:09:34.280Z,3.03
2022-08-14T15:12:02.647Z,3.80
2022-08-14T15:14:56.512Z,3.73
2022-08-14T15:17:25.023Z,3.53
2022-08-14T15:20:17.170Z,3.40
2022-08-14T15:22:57.423Z,4.37
2022-08-14T15:25:24.307Z,3.87
2022-08-14T15:27:54.441Z,3.87
2022-08-14T15:30:23.784Z,4.30
2022-08-14T15:32:51.574Z,4.00
2022-08-14T15:35:22.404Z,3.67
2022-08-14T15:37:55.696Z,4.37
2022-08-14T15:40:24.183Z,4.30
2022-08-14T15:42:51.098Z,4.17
2022-08-14T15:45:18.960Z,4.17
2022-08-14T15:47:45.746Z,3.57
2022-08-14T15:50:13.125Z,4.93
2022-08-14T15:52:42.925Z,4.10
2022-08-14T15:55:14.649Z,3.70
2022-08-14T15:58:02.144Z,3.77
2022-08-14T16:00:51.873Z,3.70
2022-08-14T16:03:27.794Z,4.10
2022-08-14T16:06:17.626Z,4.00
2022-08-14T16:08:58.863Z,4.30
2022-08-14T16:11:27.251Z,5.30
2022-08-14T16:13:57.483Z,3.50
2022-08-14T16:16:34.655Z,3.73
2022-08-14T16:19:19.201Z,5.03
2022-08-14T16:22:01.426Z,4.13
2022-08-14T16:25:00.012Z,3.73
2022-08-14T16:27:37.892Z,3.37
2022-08-14T16:33:01.090Z,4.57
2022-08-14T16:35:42.898Z,4.93
2022-08-14T16:38:45.274Z,3.80
2022-08-14T16:40:24.433Z,3.50
2022-08-14T16:41:17.163Z,3.53
2022-08-14T16:43:45.573Z,4.83
2022-08-14T16:46:14.742Z,4.07
2022-08-14T16:48:54.896Z,3.80
2022-08-14T16:51:23.867Z,4.10
2022-08-14T16:53:50.839Z,4.47
2022-08-14T16:56:30.662Z,4.30
2022-08-14T16:59:14.321Z,4.77
2022-08-14T17:01:57.557Z,5.13
2022-08-14T17:04:31.410Z,4.90
2022-08-14T17:07:02.103Z,4.30
2022-08-14T17:09:43.776Z,5.13
2022-08-14T17:12:28.386Z,4.27
2022-08-14T17:15:15.364Z,4.63
2022-08-14T17:17:54.409Z,6.17
2022-08-14T17:20:53.422Z,5.63
2022-08-14T17:23:12.461Z,4.37
2022-08-14T17:25:49.416Z,3.90
2022-08-14T17:28:50.604Z,4.10
2022-08-14T17:31:13.288Z,5.23
2022-08-14T17:33:51.767Z,4.63
2022-08-14T17:36:22.602Z,4.50
2022-08-14T17:39:23.593Z,5.27
2022-08-14T17:42:01.970Z,4.63
2022-08-14T17:44:45.059Z,5.07
2022-08-14T17:47:18.098Z,5.07
2022-08-14T17:49:52.268Z,5.40
2022-08-14T17:52:34.781Z,7.43
2022-08-14T17:55:05.891Z,4.63
2022-08-14T17:57:41.028Z,5.30
2022-08-14T18:00:16.347Z,4.47
2022-08-14T18:02:50.965Z,4.80
2022-08-14T18:05:23.263Z,6.07
2022-08-14T18:08:34.361Z,5.33
2022-08-14T18:10:56.365Z,5.27
2022-08-14T18:13:51.690Z,5.90
2022-08-14T18:16:19.914Z,6.13
2022-08-14T18:18:48.687Z,6.90
2022-08-14T18:21:42.569Z,5.23
2022-08-14T18:24:03.765Z,6.27
2022-08-14T18:26:37.092Z,5.43
2022-08-14T18:29:15.050Z,5.30
2022-08-14T18:31:45.343Z,5.27
2022-08-14T18:34:31.016Z,5.40
2022-08-14T18:37:06.969Z,4.67
2022-08-14T18:40:01.616Z,5.80
2022-08-14T18:42:30.271Z,4.93
2022-08-14T18:45:01.061Z,4.93
2022-08-14T18:47:32.643Z,4.73
2022-08-14T18:50:30.578Z,5.03
2022-08-14T18:53:07.068Z,5.93
2022-08-14T18:55:33.998Z,5.13
2022-08-14T18:58:01.000Z,5.57
2022-08-14T19:00:33.677Z,5.50
2022-08-14T19:03:01.953Z,5.60
2022-08-14T19:05:37.765Z,5.87
2022-08-14T19:08:25.158Z,6.13
2022-08-14T19:11:03.913Z,5.50
2022-08-14T19:13:48.685Z,5.73
2022-08-14T19:16:26.341Z,5.90
2022-08-14T19:19:00.017Z,6.20
2022-08-14T19:21:39.483Z,5.90
2022-08-14T19:24:29.650Z,5.23
2022-08-14T19:27:23.655Z,8.23
2022-08-14T19:30:20.529Z,6.57
2022-08-14T19:32:55.917Z,6.40
2022-08-14T19:35:50.131Z,7.60
2022-08-14T19:38:53.746Z,6.53
2022-08-14T19:41:29.198Z,7.80
2022-08-14T19:44:16.047Z,8.20
2022-08-14T19:47:01.151Z,6.10
2022-08-14T19:50:08.168Z,6.80
2022-08-14T19:52:26.542Z,7.87
2022-08-14T19:54:56.878Z,7.00
2022-08-14T19:57:29.448Z,6.60
2022-08-14T20:00:28.716Z,6.43
2022-08-14T20:03:10.754Z,6.27
2022-08-14T20:05:42.887Z,6.93
2022-08-14T20:09:05.216Z,5.97
2022-08-14T20:11:20.838Z,5.83
2022-08-14T20:14:11.922Z,5.67
2022-08-14T20:16:54.617Z,8.47
2022-08-14T20:19:28.817Z,5.53
2022-08-14T20:22:04.405Z,5.87
2022-08-14T20:24:47.203Z,6.60
2022-08-14T20:27:33.230Z,6.67
2022-08-14T20:30:29.918Z,9.70
2022-08-14T20:32:59.922Z,6.00
2022-08-14T20:35:37.051Z,5.83
2022-08-14T20:38:31.324Z,7.33
2022-08-14T20:41:01.782Z,6.47
2022-08-14T20:43:54.621Z,6.77
2022-08-14T20:46:29.556Z,8.20
2022-08-14T20:49:19.377Z,6.10
2022-08-14T20:51:59.134Z,6.27
2022-08-14T20:54:33.773Z,7.20
2022-08-14T20:57:14.201Z,5.97
2022-08-14T20:59:43.537Z,6.30
2022-08-14T21:02:34.569Z,5.93
2022-08-14T21:05:16.848Z,5.40
2022-08-14T21:07:50.932Z,5.37
2022-08-14T21:10:33.697Z,6.90
2022-08-14T21:13:26.068Z,6.10
2022-08-14T21:15:57.936Z,5.17
2022-08-14T21:18:35.195Z,9.60
2022-08-14T21:21:17.991Z,6.80
2022-08-14T21:23:54.007Z,6.10
2022-08-14T21:26:50.548Z,6.87
2022-08-14T21:29:13.482Z,5.90
2022-08-14T21:31:42.332Z,5.67
2022-08-14T21:34:27.139Z,5.63
2022-08-14T21:36:56.152Z,5.80
2022-08-14T21:39:24.636Z,6.60
2022-08-14T21:41:59.162Z,5.67
2022-08-14T21:44:42.921Z,6.70
2022-08-14T21:47:10.411Z,5.27
2022-08-14T21:49:38.787Z,5.87
2022-08-14T21:52:49.482Z,5.70
2022-08-14T21:55:10.202Z,5.15
2022-08-14T21:57:56.712Z,5.77
2022-08-14T22:00:36.280Z,6.03
2022-08-14T22:03:09.968Z,7.27
2022-08-14T22:05:39.105Z,5.63
2022-08-14T22:08:06.559Z,5.57
2022-08-14T22:10:35.271Z,5.70
2022-08-14T22:13:02.375Z,5.17
2022-08-14T22:15:32.677Z,5.57
2022-08-14T22:18:00.343Z,5.20
2022-08-14T22:20:29.180Z,5.10
2022-08-14T22:23:00.794Z,5.37
2022-08-14T22:25:32.933Z,6.07
2022-08-14T22:28:04.199Z,5.40
2022-08-14T22:30:31.224Z,5.47
2022-08-14T22:33:00.363Z,5.00
2022-08-14T22:35:28.410Z,5.30
2022-08-14T22:38:01.897Z,5.90
2022-08-14T22:40:58.167Z,5.67
2022-08-14T22:43:35.277Z,5.13
2022-08-14T22:46:14.318Z,6.23
2022-08-14T22:48:41.810Z,5.67
2022-08-14T22:51:08.579Z,5.97
2022-08-14T22:53:40.406Z,6.53
2022-08-14T22:56:21.311Z,5.60
2022-08-14T22:58:54.187Z,6.10
2022-08-14T23:01:55.545Z,6.10
2022-08-14T23:04:34.740Z,6.33
2022-08-14T23:07:21.734Z,7.23
2022-08-14T23:10:33.166Z,6.40
2022-08-14T23:12:54.422Z,7.83
2022-08-14T23:15:23.663Z,6.13
2022-08-14T23:17:50.932Z,5.70
2022-08-14T23:20:21.002Z,6.17
2022-08-14T23:22:53.543Z,6.73
2022-08-14T23:25:57.440Z,5.50
2022-08-14T23:28:34.847Z,6.30
2022-08-14T23:31:01.562Z,6.50
2022-08-14T23:33:28.755Z,6.20
2022-08-14T23:35:59.443Z,6.87
2022-08-14T23:38:30.889Z,8.07
2022-08-14T23:41:04.082Z,7.93
2022-08-14T23:43:31.695Z,6.20
2022-08-14T23:45:59.141Z,6.63
2022-08-14T23:48:28.497Z,6.20
2022-08-14T23:50:55.645Z,5.47
2022-08-14T23:53:47.806Z,5.97
2022-08-14T23:56:31.933Z,8.20
2022-08-14T23:59:01.090Z,5.60
